createdAt,value
2019-05-21T00:02:02.547Z,83.87
2019-05-21T00:04:38.000Z,83.82
2019-05-21T00:07:09.516Z,83.57
2019-05-21T00:09:43.922Z,83.56
2019-05-21T00:12:15.141Z,83.51
2019-05-21T00:14:47.938Z,82.83
2019-05-21T00:17:21.316Z,82.84
2019-05-21T00:19:53.545Z,83.06
2019-05-21T00:22:28.117Z,83.16
2019-05-21T00:25:03.935Z,83.09
2019-05-21T00:27:36.295Z,84.07
2019-05-21T00:30:44.197Z,84.41
2019-05-21T00:33:54.245Z,85.74
2019-05-21T00:37:04.165Z,86.07
2019-05-21T00:40:11.389Z,85.55
2019-05-21T00:42:45.081Z,85.32
2019-05-21T00:45:18.389Z,85.41
2019-05-21T00:47:49.903Z,85.45
2019-05-21T00:50:21.837Z,85.66
2019-05-21T00:52:54.639Z,85.90
2019-05-21T00:55:27.511Z,86.15
2019-05-21T00:58:00.465Z,85.96
2019-05-21T01:00:33.693Z,85.86
2019-05-21T01:03:09.189Z,85.36
2019-05-21T01:05:40.378Z,85.21
2019-05-21T01:08:12.655Z,85.21
2019-05-21T01:10:44.983Z,85.30
2019-05-21T01:13:18.428Z,85.28
2019-05-21T01:15:53.355Z,85.28
2019-05-21T01:18:27.525Z,85.82
2019-05-21T01:21:00.642Z,86.23
2019-05-21T01:23:33.500Z,85.71
2019-05-21T01:26:09.405Z,85.30
2019-05-21T01:28:44.661Z,84.75
2019-05-21T01:31:17.050Z,84.81
2019-05-21T01:33:49.994Z,86.15
2019-05-21T01:36:21.788Z,86.90
2019-05-21T01:38:55.941Z,86.78
2019-05-21T01:41:28.851Z,86.42
2019-05-21T01:44:02.021Z,86.42
2019-05-21T01:46:33.862Z,85.01
2019-05-21T01:49:05.704Z,85.16
2019-05-21T01:51:40.766Z,85.66
2019-05-21T01:54:12.678Z,85.64
2019-05-21T01:56:45.613Z,85.49
2019-05-21T01:59:18.780Z,85.02
2019-05-21T02:01:51.180Z,86.30
2019-05-21T02:04:25.081Z,86.68
2019-05-21T02:06:59.032Z,87.04
2019-05-21T02:09:34.771Z,86.49
2019-05-21T02:12:10.769Z,86.93
2019-05-21T02:14:41.798Z,87.01
2019-05-21T02:17:15.836Z,86.53
2019-05-21T02:19:50.250Z,86.22
2019-05-21T02:22:21.840Z,86.34
2019-05-21T02:24:54.719Z,86.00
2019-05-21T02:27:27.799Z,86.10
2019-05-21T02:30:02.379Z,86.05
2019-05-21T02:32:35.986Z,85.58
2019-05-21T02:35:09.078Z,85.58
2019-05-21T02:37:43.700Z,85.54
2019-05-21T02:40:15.239Z,85.47
2019-05-21T02:42:47.996Z,85.30
2019-05-21T02:45:19.828Z,85.05
2019-05-21T02:47:51.066Z,85.32
2019-05-21T02:50:24.276Z,86.28
2019-05-21T02:52:57.029Z,85.79
2019-05-21T02:55:30.116Z,85.56
2019-05-21T02:58:03.871Z,85.62
2019-05-21T03:01:04.573Z,85.39
2019-05-21T03:03:41.755Z,85.36
2019-05-21T03:06:15.232Z,85.89
2019-05-21T03:08:50.472Z,85.45
2019-05-21T03:11:22.236Z,85.54
2019-05-21T03:13:54.198Z,85.53
2019-05-21T03:16:28.406Z,85.06
2019-05-21T03:19:00.084Z,84.54
2019-05-21T03:21:33.107Z,84.46
2019-05-21T03:24:06.108Z,85.15
2019-05-21T03:26:40.080Z,84.98
2019-05-21T03:29:12.173Z,84.81
2019-05-21T03:31:45.168Z,84.59
2019-05-21T03:34:18.133Z,84.46
2019-05-21T03:36:50.234Z,84.12
2019-05-21T03:39:25.109Z,84.34
2019-05-21T03:41:59.103Z,84.40
2019-05-21T03:44:30.490Z,84.12
2019-05-21T03:47:04.290Z,84.16
2019-05-21T03:49:35.525Z,84.24
2019-05-21T03:52:07.169Z,84.35
2019-05-21T03:54:39.217Z,84.68
2019-05-21T03:57:12.322Z,84.66
2019-05-21T03:59:44.711Z,85.37
2019-05-21T04:02:19.957Z,85.91
2019-05-21T04:04:52.991Z,84.80
2019-05-21T04:07:24.284Z,84.99
2019-05-21T04:09:57.793Z,84.45
2019-05-21T04:12:30.731Z,84.60
2019-05-21T04:15:07.967Z,84.58
2019-05-21T04:17:49.867Z,84.56
2019-05-21T04:20:22.986Z,84.05
2019-05-21T04:22:56.151Z,83.91
2019-05-21T04:25:27.725Z,84.06
2019-05-21T04:28:01.134Z,82.99
2019-05-21T04:30:33.691Z,82.45
2019-05-21T04:33:08.010Z,82.35
2019-05-21T04:35:40.407Z,82.48
2019-05-21T04:38:12.561Z,82.06
2019-05-21T04:40:45.648Z,82.12
2019-05-21T04:43:18.569Z,81.77
2019-05-21T04:45:50.493Z,81.51
2019-05-21T04:48:26.131Z,81.31
2019-05-21T04:50:59.581Z,81.37
2019-05-21T04:53:31.474Z,81.40
2019-05-21T04:56:03.602Z,81.31
2019-05-21T04:58:36.576Z,80.73
2019-05-21T05:01:10.709Z,80.82
2019-05-21T05:03:43.363Z,80.91
2019-05-21T05:06:17.473Z,81.01
2019-05-21T05:08:48.675Z,80.97
2019-05-21T05:11:21.586Z,79.97
2019-05-21T05:13:54.631Z,79.68
2019-05-21T05:16:27.758Z,79.01
2019-05-21T05:18:59.689Z,80.06
2019-05-21T05:21:34.006Z,79.15
2019-05-21T05:24:06.863Z,78.17
2019-05-21T05:26:39.814Z,79.22
2019-05-21T05:29:14.354Z,79.08
2019-05-21T05:31:45.575Z,79.34
2019-05-21T05:34:18.848Z,78.46
2019-05-21T05:36:54.457Z,78.59
2019-05-21T05:39:27.929Z,78.14
2019-05-21T05:42:03.445Z,77.64
2019-05-21T05:44:35.843Z,79.11
2019-05-21T05:47:09.257Z,77.56
2019-05-21T05:49:46.723Z,78.60
2019-05-21T05:52:18.930Z,77.90
2019-05-21T05:54:50.939Z,77.31
2019-05-21T05:57:24.840Z,78.71
2019-05-21T05:59:57.190Z,78.74
2019-05-21T06:02:32.935Z,79.05
2019-05-21T06:05:07.110Z,78.67
2019-05-21T06:07:42.090Z,80.06
2019-05-21T06:10:17.862Z,79.93
2019-05-21T06:12:51.834Z,79.30
2019-05-21T06:15:26.314Z,79.31
2019-05-21T06:18:00.442Z,81.82
2019-05-21T06:20:34.123Z,81.17
2019-05-21T06:23:06.906Z,80.86
2019-05-21T06:25:39.870Z,81.22
2019-05-21T06:28:12.929Z,83.07
2019-05-21T06:31:07.938Z,82.68
2019-05-21T06:33:42.855Z,83.92
2019-05-21T06:36:16.099Z,85.18
2019-05-21T06:38:49.146Z,84.44
2019-05-21T06:41:23.307Z,84.34
2019-05-21T06:43:54.988Z,84.41
2019-05-21T06:46:28.266Z,84.27
2019-05-21T06:49:00.198Z,83.46
2019-05-21T06:51:32.350Z,83.12
2019-05-21T06:54:05.633Z,83.50
2019-05-21T06:56:37.064Z,83.26
2019-05-21T06:59:09.290Z,82.34
2019-05-21T07:01:42.150Z,81.60
2019-05-21T07:04:16.343Z,82.49
2019-05-21T07:06:49.134Z,83.65
2019-05-21T07:09:22.377Z,83.33
2019-05-21T07:11:57.240Z,83.91
2019-05-21T07:14:29.350Z,82.48
2019-05-21T07:17:03.175Z,82.52
2019-05-21T07:19:34.399Z,83.10
2019-05-21T07:22:12.631Z,82.57
2019-05-21T07:24:39.543Z,81.77
2019-05-21T07:27:13.328Z,81.44
2019-05-21T07:29:46.953Z,82.08
2019-05-21T07:32:18.187Z,83.92
2019-05-21T07:34:50.501Z,84.44
2019-05-21T07:37:24.722Z,84.09
2019-05-21T07:39:56.657Z,84.37
2019-05-21T07:42:30.303Z,83.86
2019-05-21T07:45:03.562Z,83.99
2019-05-21T07:47:37.518Z,84.17
2019-05-21T07:50:09.570Z,84.16
2019-05-21T07:52:43.414Z,84.71
2019-05-21T07:55:15.590Z,84.41
2019-05-21T07:57:48.625Z,84.89
2019-05-21T08:00:20.444Z,84.04
2019-05-21T08:02:53.204Z,83.38
2019-05-21T08:05:27.099Z,83.75
2019-05-21T08:08:00.540Z,84.50
2019-05-21T08:10:33.567Z,84.48
2019-05-21T08:13:07.534Z,85.04
2019-05-21T08:15:39.580Z,83.77
2019-05-21T08:18:14.560Z,83.01
2019-05-21T08:20:48.879Z,82.34
2019-05-21T08:23:21.551Z,83.18
2019-05-21T08:25:54.578Z,83.20
2019-05-21T08:28:27.553Z,84.12
2019-05-21T08:31:02.241Z,83.86
2019-05-21T08:33:33.540Z,85.08
2019-05-21T08:36:09.852Z,82.40
2019-05-21T08:38:44.958Z,83.96
2019-05-21T08:41:20.764Z,82.80
2019-05-21T08:43:52.649Z,82.99
2019-05-21T08:46:24.610Z,84.63
2019-05-21T08:48:58.683Z,84.73
2019-05-21T08:51:30.566Z,83.90
2019-05-21T08:54:03.799Z,85.13
2019-05-21T08:56:37.601Z,82.98
2019-05-21T08:59:09.425Z,82.53
2019-05-21T09:01:42.565Z,82.46
2019-05-21T09:04:15.870Z,83.84
2019-05-21T09:06:48.796Z,84.49
2019-05-21T09:09:21.721Z,82.83
2019-05-21T09:11:54.500Z,82.77
2019-05-21T09:14:27.760Z,82.43
2019-05-21T09:17:01.089Z,83.40
2019-05-21T09:19:36.389Z,83.81
2019-05-21T09:22:09.526Z,81.29
2019-05-21T09:24:43.236Z,83.12
2019-05-21T09:27:15.845Z,83.41
2019-05-21T09:29:48.164Z,83.30
2019-05-21T09:32:23.053Z,82.05
2019-05-21T09:34:56.867Z,82.03
2019-05-21T09:37:30.894Z,81.02
2019-05-21T09:40:04.549Z,82.14
2019-05-21T09:42:37.081Z,83.63
2019-05-21T09:45:10.393Z,83.94
2019-05-21T09:47:43.069Z,82.47
2019-05-21T09:50:16.480Z,83.36
2019-05-21T09:52:49.204Z,82.22
2019-05-21T09:55:21.932Z,83.59
2019-05-21T09:58:14.378Z,84.66
2019-05-21T10:01:07.987Z,84.90
2019-05-21T10:03:44.606Z,83.86
2019-05-21T10:06:16.945Z,83.71
2019-05-21T10:08:50.375Z,85.13
2019-05-21T10:11:22.864Z,86.33
2019-05-21T10:13:55.042Z,86.00
2019-05-21T10:16:28.374Z,86.00
2019-05-21T10:19:00.201Z,85.42
2019-05-21T10:21:35.830Z,86.26
2019-05-21T10:24:09.506Z,86.81
2019-05-21T10:26:43.064Z,85.49
2019-05-21T10:29:16.274Z,85.66
2019-05-21T10:31:49.283Z,85.56
2019-05-21T10:34:22.086Z,85.37
2019-05-21T10:36:55.178Z,85.21
2019-05-21T10:39:28.199Z,84.11
2019-05-21T10:42:00.187Z,84.21
2019-05-21T10:44:33.270Z,84.09
2019-05-21T10:47:06.982Z,84.26
2019-05-21T10:49:39.251Z,84.31
2019-05-21T10:52:13.360Z,83.90
2019-05-21T10:54:45.337Z,85.50
2019-05-21T10:57:19.400Z,84.93
2019-05-21T10:59:55.207Z,84.76
2019-05-21T11:02:42.562Z,83.46
2019-05-21T11:05:28.683Z,82.75
2019-05-21T11:08:22.157Z,84.87
2019-05-21T11:10:34.416Z,84.52
2019-05-21T11:13:09.361Z,84.95
2019-05-21T11:15:40.995Z,84.41
2019-05-21T11:18:13.447Z,85.70
2019-05-21T11:20:47.643Z,83.46
2019-05-21T11:23:19.374Z,83.71
2019-05-21T11:25:52.425Z,84.86
2019-05-21T11:28:25.265Z,85.20
2019-05-21T11:30:57.469Z,83.91
2019-05-21T11:33:31.454Z,84.99
2019-05-21T11:36:03.813Z,85.25
2019-05-21T11:38:40.464Z,85.72
2019-05-21T11:41:13.399Z,85.63
2019-05-21T11:43:49.311Z,86.45
2019-05-21T11:46:22.585Z,85.87
2019-05-21T11:48:54.546Z,85.97
2019-05-21T11:51:28.683Z,84.90
2019-05-21T11:54:04.118Z,85.46
2019-05-21T11:56:37.361Z,85.57
2019-05-21T11:59:09.569Z,85.68
2019-05-21T12:01:43.331Z,85.52
2019-05-21T12:04:16.706Z,85.26
2019-05-21T12:06:53.241Z,85.86
2019-05-21T12:09:25.718Z,85.09
2019-05-21T12:11:58.516Z,85.25
2019-05-21T12:14:29.748Z,85.54
2019-05-21T12:17:03.701Z,85.50
2019-05-21T12:19:39.283Z,86.30
2019-05-21T12:22:12.235Z,86.25
2019-05-21T12:24:44.749Z,86.63
2019-05-21T12:27:18.699Z,85.32
2019-05-21T12:29:50.708Z,86.47
2019-05-21T12:32:26.444Z,86.34
2019-05-21T12:34:57.727Z,86.21
2019-05-21T12:37:32.150Z,86.72
2019-05-21T12:40:05.319Z,86.43
2019-05-21T12:42:37.778Z,87.29
2019-05-21T12:45:09.782Z,86.05
2019-05-21T12:47:42.015Z,85.20
2019-05-21T12:50:16.144Z,84.61
2019-05-21T12:52:47.971Z,85.30
2019-05-21T12:55:19.881Z,85.79
2019-05-21T12:57:52.924Z,86.14
2019-05-21T13:00:30.441Z,85.50
2019-05-21T13:03:01.664Z,85.02
2019-05-21T13:05:33.952Z,84.51
2019-05-21T13:08:05.829Z,84.21
2019-05-21T13:10:38.197Z,83.37
2019-05-21T13:13:10.207Z,84.86
2019-05-21T13:15:42.929Z,84.51
2019-05-21T13:18:18.155Z,84.23
2019-05-21T13:20:53.777Z,83.58
2019-05-21T13:23:27.777Z,83.87
2019-05-21T13:25:59.158Z,84.01
2019-05-21T13:28:32.607Z,85.33
2019-05-21T13:31:05.416Z,84.14
2019-05-21T13:33:41.478Z,84.08
2019-05-21T13:36:14.144Z,83.55
2019-05-21T13:38:46.732Z,82.87
2019-05-21T13:41:19.697Z,84.57
2019-05-21T13:43:53.028Z,83.99
2019-05-21T13:46:26.072Z,84.99
2019-05-21T13:48:58.194Z,84.85
2019-05-21T13:51:31.262Z,83.82
2019-05-21T13:54:05.071Z,83.97
2019-05-21T13:56:38.483Z,85.03
2019-05-21T13:59:11.278Z,85.80
2019-05-21T14:01:43.570Z,86.38
2019-05-21T14:04:16.839Z,85.50
2019-05-21T14:06:50.228Z,84.23
2019-05-21T14:09:22.951Z,84.68
2019-05-21T14:11:57.929Z,84.51
2019-05-21T14:14:30.472Z,84.63
2019-05-21T14:17:04.237Z,85.27
2019-05-21T14:19:36.208Z,85.78
2019-05-21T14:22:08.671Z,85.96
2019-05-21T14:24:42.360Z,86.90
2019-05-21T14:27:15.868Z,87.78
2019-05-21T14:29:48.250Z,86.29
2019-05-21T14:32:22.355Z,85.55
2019-05-21T14:35:01.523Z,84.67
2019-05-21T14:37:34.199Z,86.05
2019-05-21T14:40:09.399Z,85.86
2019-05-21T14:42:58.418Z,86.09
2019-05-21T14:45:19.207Z,86.94
2019-05-21T14:47:54.796Z,87.89
2019-05-21T14:50:28.241Z,87.23
2019-05-21T14:53:02.293Z,87.27
2019-05-21T14:55:35.975Z,87.50
2019-05-21T14:58:07.380Z,87.51
2019-05-21T15:00:38.707Z,87.23
2019-05-21T15:03:24.197Z,87.99
2019-05-21T15:05:44.424Z,88.00
2019-05-21T15:08:16.494Z,86.80
2019-05-21T15:10:49.873Z,87.37
2019-05-21T15:13:23.361Z,87.16
2019-05-21T15:15:55.297Z,87.69
2019-05-21T15:18:34.290Z,87.73
2019-05-21T15:21:21.985Z,87.20
2019-05-21T15:23:57.456Z,88.87
2019-05-21T15:26:34.222Z,88.35
2019-05-21T15:29:11.727Z,88.84
2019-05-21T15:31:46.082Z,87.79
2019-05-21T15:34:19.425Z,88.62
2019-05-21T15:36:52.674Z,88.90
2019-05-21T15:39:25.844Z,88.44
2019-05-21T15:41:59.374Z,88.81
2019-05-21T15:44:31.142Z,87.58
2019-05-21T15:47:06.252Z,87.17
2019-05-21T15:49:37.591Z,88.19
2019-05-21T15:52:10.314Z,88.17
2019-05-21T15:54:41.692Z,88.64
2019-05-21T15:57:14.504Z,87.73
2019-05-21T15:59:46.923Z,87.90
2019-05-21T16:02:19.702Z,87.07
2019-05-21T16:04:52.743Z,87.49
2019-05-21T16:07:25.702Z,87.38
2019-05-21T16:09:58.168Z,87.96
2019-05-21T16:12:31.181Z,88.37
2019-05-21T16:15:05.478Z,87.85
2019-05-21T16:17:37.974Z,88.26
2019-05-21T16:20:10.456Z,88.58
2019-05-21T16:22:43.913Z,88.89
2019-05-21T16:25:16.955Z,88.90
2019-05-21T16:27:49.769Z,89.58
2019-05-21T16:30:22.811Z,88.71
2019-05-21T16:32:55.752Z,89.03
2019-05-21T16:35:30.376Z,89.35
2019-05-21T16:38:03.172Z,89.64
2019-05-21T16:40:34.960Z,89.78
2019-05-21T16:43:08.989Z,89.12
2019-05-21T16:45:44.843Z,89.21
2019-05-21T16:48:16.975Z,89.57
2019-05-21T16:50:49.007Z,89.78
2019-05-21T16:53:22.830Z,89.79
2019-05-21T16:55:55.961Z,89.95
2019-05-21T16:58:27.977Z,90.24
2019-05-21T17:01:00.901Z,90.12
2019-05-21T17:03:36.630Z,90.12
2019-05-21T17:06:10.170Z,89.58
2019-05-21T17:08:43.769Z,90.04
2019-05-21T17:11:15.954Z,89.98
2019-05-21T17:13:48.939Z,90.22
2019-05-21T17:16:22.078Z,89.68
2019-05-21T17:18:54.966Z,90.36
2019-05-21T17:21:27.159Z,89.92
2019-05-21T17:24:02.028Z,90.73
2019-05-21T17:26:34.008Z,90.96
2019-05-21T17:29:07.006Z,91.01
2019-05-21T17:31:40.184Z,91.21
2019-05-21T17:34:13.107Z,90.99
2019-05-21T17:36:48.028Z,90.71
2019-05-21T17:39:22.476Z,90.86
2019-05-21T17:41:56.041Z,91.18
2019-05-21T17:44:28.082Z,91.55
2019-05-21T17:47:01.350Z,91.04
2019-05-21T17:49:33.308Z,90.93
2019-05-21T17:52:07.309Z,91.47
2019-05-21T17:54:55.593Z,91.38
2019-05-21T17:57:14.581Z,91.05
2019-05-21T17:59:48.232Z,91.21
2019-05-21T18:02:24.656Z,91.22
2019-05-21T18:05:02.053Z,91.37
2019-05-21T18:07:34.786Z,90.99
2019-05-21T18:10:07.016Z,90.67
2019-05-21T18:12:41.067Z,90.69
2019-05-21T18:15:14.512Z,90.90
2019-05-21T18:17:50.571Z,90.61
2019-05-21T18:20:23.976Z,90.98
2019-05-21T18:22:55.460Z,90.65
2019-05-21T18:25:29.957Z,90.59
2019-05-21T18:28:01.282Z,90.33
2019-05-21T18:30:35.821Z,90.56
2019-05-21T18:33:07.353Z,90.86
2019-05-21T18:35:41.295Z,91.01
2019-05-21T18:38:14.928Z,91.54
2019-05-21T18:40:46.843Z,91.17
2019-05-21T18:43:19.471Z,90.46
2019-05-21T18:45:53.315Z,90.60
2019-05-21T18:48:25.577Z,90.89
2019-05-21T18:50:58.311Z,91.29
2019-05-21T18:53:31.420Z,90.82
2019-05-21T18:56:07.060Z,90.97
2019-05-21T18:58:40.099Z,90.93
2019-05-21T19:01:14.003Z,90.64
2019-05-21T19:03:46.553Z,90.61
2019-05-21T19:06:19.425Z,90.80
2019-05-21T19:08:53.752Z,90.54
2019-05-21T19:11:25.461Z,90.35
2019-05-21T19:13:58.562Z,89.87
2019-05-21T19:16:31.592Z,89.58
2019-05-21T19:19:04.728Z,90.10
2019-05-21T19:21:37.720Z,90.20
2019-05-21T19:24:09.874Z,90.15
2019-05-21T19:26:44.228Z,90.23
2019-05-21T19:29:16.816Z,90.69
2019-05-21T19:31:49.601Z,90.72
2019-05-21T19:34:22.794Z,90.77
2019-05-21T19:36:57.357Z,91.05
2019-05-21T19:39:29.044Z,90.91
2019-05-21T19:42:03.097Z,90.35
2019-05-21T19:44:34.768Z,90.32
2019-05-21T19:47:09.110Z,91.04
2019-05-21T19:49:43.823Z,90.93
2019-05-21T19:52:17.992Z,90.91
2019-05-21T19:54:52.088Z,90.91
2019-05-21T19:57:28.135Z,91.17
2019-05-21T20:00:02.611Z,91.07
2019-05-21T20:02:35.857Z,91.29
2019-05-21T20:05:13.011Z,90.99
2019-05-21T20:07:45.841Z,90.61
2019-05-21T20:10:22.924Z,90.31
2019-05-21T20:13:01.516Z,90.39
2019-05-21T20:15:37.370Z,90.59
2019-05-21T20:18:12.345Z,90.66
2019-05-21T20:20:44.249Z,91.41
2019-05-21T20:23:18.760Z,91.42
2019-05-21T20:25:56.556Z,91.24
2019-05-21T20:28:29.636Z,91.28
2019-05-21T20:31:02.033Z,91.04
2019-05-21T20:33:35.136Z,91.05
2019-05-21T20:36:09.075Z,90.79
2019-05-21T20:38:43.353Z,91.21
2019-05-21T20:41:20.466Z,91.12
2019-05-21T20:43:59.058Z,91.15
2019-05-21T20:46:29.847Z,90.59
2019-05-21T20:49:02.209Z,91.00
2019-05-21T20:51:36.046Z,90.91
2019-05-21T20:54:10.456Z,90.63
2019-05-21T20:56:42.501Z,90.57
2019-05-21T20:59:13.873Z,90.62
2019-05-21T21:01:47.863Z,90.81
2019-05-21T21:04:20.371Z,91.10
2019-05-21T21:06:52.162Z,90.79
2019-05-21T21:09:25.960Z,90.74
2019-05-21T21:12:00.294Z,91.07
2019-05-21T21:14:33.677Z,90.98
2019-05-21T21:17:07.128Z,90.45
2019-05-21T21:19:39.919Z,90.67
2019-05-21T21:22:12.045Z,90.90
2019-05-21T21:24:43.975Z,91.18
2019-05-21T21:27:17.233Z,91.28
2019-05-21T21:29:51.177Z,91.87
2019-05-21T21:32:23.262Z,91.09
2019-05-21T21:34:58.861Z,91.49
2019-05-21T21:38:00.617Z,91.50
2019-05-21T21:40:32.372Z,91.41
2019-05-21T21:43:08.040Z,91.95
2019-05-21T21:45:42.083Z,91.71
2019-05-21T21:48:16.240Z,92.16
2019-05-21T21:50:49.071Z,92.37
2019-05-21T21:53:20.758Z,92.63
2019-05-21T21:55:54.350Z,92.48
2019-05-21T21:58:28.464Z,92.49
2019-05-21T22:01:28.351Z,92.40
2019-05-21T22:04:04.573Z,92.02
2019-05-21T22:06:41.634Z,92.29
2019-05-21T22:09:19.082Z,92.00
2019-05-21T22:11:55.495Z,92.50
2019-05-21T22:14:29.842Z,92.51
2019-05-21T22:17:02.141Z,92.87
2019-05-21T22:19:33.629Z,92.65
2019-05-21T22:22:07.602Z,92.63
2019-05-21T22:24:41.970Z,92.66
2019-05-21T22:27:13.761Z,92.58
2019-05-21T22:29:45.603Z,92.11
2019-05-21T22:32:19.579Z,92.60
2019-05-21T22:34:51.477Z,92.69
2019-05-21T22:37:27.040Z,92.78
2019-05-21T22:40:01.341Z,92.49
2019-05-21T22:42:35.256Z,92.46
2019-05-21T22:45:10.288Z,93.09
2019-05-21T22:47:43.588Z,92.85
2019-05-21T22:50:17.053Z,92.82
2019-05-21T22:52:49.605Z,92.57
2019-05-21T22:55:22.967Z,92.52
2019-05-21T22:57:57.182Z,92.58
2019-05-21T23:00:28.716Z,92.42
2019-05-21T23:03:04.242Z,93.04
2019-05-21T23:05:37.535Z,92.80
2019-05-21T23:08:10.941Z,92.66
2019-05-21T23:10:43.921Z,92.12
2019-05-21T23:13:16.680Z,91.97
2019-05-21T23:15:50.955Z,91.93
2019-05-21T23:18:22.754Z,92.34
2019-05-21T23:20:59.128Z,92.92
2019-05-21T23:23:33.654Z,93.65
2019-05-21T23:26:10.209Z,93.56
2019-05-21T23:28:46.168Z,93.87
2019-05-21T23:31:21.870Z,93.66
2019-05-21T23:33:58.742Z,93.66
2019-05-21T23:36:32.793Z,93.65
2019-05-21T23:39:09.221Z,93.96
2019-05-21T23:41:42.061Z,93.81
2019-05-21T23:44:14.569Z,93.49
2019-05-21T23:46:48.907Z,93.60
2019-05-21T23:49:24.440Z,93.55
2019-05-21T23:51:56.801Z,93.47
2019-05-21T23:54:29.745Z,92.92
2019-05-21T23:57:03.020Z,93.01
2019-05-21T23:59:37.372Z,93.48
